Details for Ryanair at EGNM




Go Back


Latest METAR
Local Time

EGNM 212320Z 27008KT 250V310 CAVOK 11/06 Q1029

22/06/2018, 00:33:30

Description
Results
Ryanair Logo
Number of Pilots based at EGNM
0 Pilots Based here
Number of Ryanair Flights Departed from EGNM
5 Flights Departed
Number of Ryanair Flights Arrived at EGNM
2 Flights Arrived
Number of Ryanair Schedules Departing from EGNM
47 Schedules
Number of Ryanair Schedules Arriving at EGNM
45 Schedules
Number of Ryanair Schedules Departing from EGNM availible today
12 Schedules Today
Number of Ryanair Schedules Arriving at EGNM availible today
12 Schedules Today
Average Landing Rate at EGNM
-200 fpm
Ryanair Average Landing Rate at EGNM
-213 fpm
Total Fuel Purchased at EGNM by Ryanair
37,692.17 kgs / 83,096.16 lbs

Pilots Based at EGNM


Pilot ID
Pilot Name
Pilot Rank
No. of Flights
No. of Flying Hours
There are no pilots assigned to this hub!   Will you be the first?
Content